Accueil
METAR-TAF:

METAR-TAF

Aéroports :

Talkeetna, Alaska, États-Unis

latitude: 62-19-14N, longitude: 150-05-37W, altitude: 109 m

Observation

Le bulletin a été fait il y a 15 minutes, à 15:53 UTC
Vent calme
Température 11°C
Humidité 62%
Pression 1002 hPa
Visibilité: 16.1 km
Nuages épars à une hauteur de 4000 ft
Nuages épars à une hauteur de 6500 ft

METAR: PATK 021553Z AUTO 00000KT 10SM SCT040 SCT065 11/04 A2959 RMK AO2 SLP023 T01110044 TSNO

Heure: 08:08 (16:08 UTC)

Prévision

Le bulletin a été fait il y a 4 heures et 45 minutes, à 11:23 UTC
Prévision valable du 02 à 12 UTC au 03 à 12 UTC
Vent 7 kt de sud
Visibilité: 10 km
Ciel couvert à une hauteur de 5000 ft
averses à proximité

TAF: PATK 021123Z 0212/0312 19007KT P6SM VCSH OVC050

Observations et prévisions météorologiques de plus de 4000 aéroports (messages METAR et TAF).

Les stations disponibles sont représentées par des disques jaunes et rouges sur la carte.

Passer la souris dessus pour voir le nom de la station.

Cliquer dessus pour voir les observations et prévisions météorologiques.

Pour changer de carte: cliquez sur les boutons verts avec une croix noire pour zoomer, sur le bouton vert avec un tiret pour effectuer un zoom arrière, ou sur les flèches vertes pour les cartes adjacentes.


METAR-TAF: